createdAt,value
2019-06-07T00:01:38.330Z,65.50
2019-06-07T00:04:09.893Z,65.60
2019-06-07T00:06:37.778Z,65.60
2019-06-07T00:09:09.694Z,65.60
2019-06-07T00:11:38.036Z,65.60
2019-06-07T00:14:08.579Z,65.70
2019-06-07T00:16:37.661Z,65.70
2019-06-07T00:19:07.209Z,65.80
2019-06-07T00:24:08.770Z,65.60
2019-06-07T00:26:57.063Z,65.50
2019-06-07T00:29:09.232Z,65.40
2019-06-07T00:31:38.783Z,65.40
2019-06-07T00:34:10.304Z,65.50
2019-06-07T00:36:38.700Z,65.50
2019-06-07T00:39:10.670Z,65.50
2019-06-07T00:41:39.031Z,65.70
2019-06-07T00:44:08.037Z,65.70
2019-06-07T00:46:36.864Z,65.80
2019-06-07T00:49:05.858Z,66.60
2019-06-07T00:51:50.143Z,65.80
2019-06-07T00:54:05.827Z,65.80
2019-06-07T00:56:34.728Z,65.80
2019-06-07T00:59:11.100Z,65.80
2019-06-07T01:01:34.910Z,65.80
2019-06-07T01:04:04.083Z,65.90
2019-06-07T01:06:33.155Z,65.90
2019-06-07T01:09:01.963Z,66.00
2019-06-07T01:11:31.249Z,65.90
2019-06-07T01:14:00.335Z,66.60
2019-06-07T01:16:53.092Z,66.00
2019-06-07T01:19:00.192Z,66.00
2019-06-07T01:21:29.897Z,66.00
2019-06-07T01:24:11.432Z,66.00
2019-06-07T01:26:30.581Z,66.00
2019-06-07T01:28:59.748Z,66.00
2019-06-07T01:31:31.649Z,66.00
2019-06-07T01:33:59.524Z,66.00
2019-06-07T01:36:29.558Z,66.00
2019-06-07T01:39:00.632Z,66.00
2019-06-07T01:41:30.694Z,66.00
2019-06-07T01:44:00.223Z,66.00
2019-06-07T01:46:29.019Z,66.00
2019-06-07T01:48:58.194Z,66.10
2019-06-07T01:51:27.958Z,65.90
2019-06-07T01:54:48.131Z,66.40
2019-06-07T01:56:29.932Z,66.00
2019-06-07T01:58:59.200Z,66.00
2019-06-07T02:01:34.612Z,66.00
2019-06-07T02:03:58.994Z,66.10
2019-06-07T02:06:31.836Z,66.00
2019-06-07T02:08:58.464Z,66.00
2019-06-07T02:11:29.402Z,66.00
2019-06-07T02:13:58.342Z,65.90
2019-06-07T02:16:30.471Z,65.90
2019-06-07T02:19:02.063Z,65.90
2019-06-07T02:21:31.555Z,65.80
2019-06-07T02:23:58.999Z,66.00
2019-06-07T02:26:29.933Z,66.10
2019-06-07T02:28:59.062Z,66.30
2019-06-07T02:31:36.508Z,66.30
2019-06-07T02:33:59.712Z,66.40
2019-06-07T02:36:33.236Z,66.30
2019-06-07T02:38:59.409Z,66.40
2019-06-07T02:41:33.358Z,66.40
2019-06-07T02:43:58.988Z,66.50
2019-06-07T02:46:36.387Z,66.60
2019-06-07T02:48:58.699Z,66.70
2019-06-07T02:51:33.559Z,66.80
2019-06-07T02:53:58.278Z,66.90
2019-06-07T02:56:39.841Z,67.10
2019-06-07T02:58:58.179Z,67.00
2019-06-07T03:01:28.628Z,67.10
2019-06-07T03:03:58.493Z,67.00
2019-06-07T03:06:31.787Z,67.00
2019-06-07T03:09:00.062Z,66.90
2019-06-07T03:11:35.660Z,67.30
2019-06-07T03:14:03.708Z,67.40
2019-06-07T03:16:44.877Z,67.30
2019-06-07T03:19:26.323Z,67.30
2019-06-07T03:21:55.402Z,67.20
2019-06-07T03:24:26.078Z,67.10
2019-06-07T03:29:28.890Z,67.00
2019-06-07T03:31:58.497Z,67.10
2019-06-07T03:34:29.720Z,67.10
2019-06-07T03:36:57.942Z,67.40
2019-06-07T03:39:28.426Z,67.20
2019-06-07T03:42:06.173Z,67.40
2019-06-07T03:44:32.169Z,67.30
2019-06-07T03:46:59.218Z,67.20
2019-06-07T03:49:30.652Z,67.10
2019-06-07T03:51:59.141Z,67.00
2019-06-07T03:54:29.516Z,67.10
2019-06-07T03:56:58.929Z,67.00
2019-06-07T03:59:30.859Z,67.00
2019-06-07T04:01:59.217Z,67.00
2019-06-07T04:04:29.784Z,67.00
2019-06-07T04:06:59.330Z,66.90
2019-06-07T04:09:28.755Z,67.00
2019-06-07T04:11:58.820Z,67.00
2019-06-07T04:14:29.709Z,67.00
2019-06-07T04:16:59.086Z,67.00
2019-06-07T04:19:28.857Z,66.80
2019-06-07T04:21:58.667Z,66.90
2019-06-07T04:24:28.632Z,66.90
2019-06-07T04:26:57.745Z,66.80
2019-06-07T04:29:59.986Z,67.30
2019-06-07T04:31:57.214Z,67.70
2019-06-07T04:34:26.133Z,67.80
2019-06-07T04:36:59.289Z,67.50
2019-06-07T04:39:29.854Z,67.10
2019-06-07T04:42:00.811Z,66.50
2019-06-07T04:44:34.234Z,66.70
2019-06-07T04:47:04.387Z,65.90
2019-06-07T04:49:38.141Z,66.00
2019-06-07T04:52:05.957Z,66.00
2019-06-07T04:54:37.720Z,66.10
2019-06-07T04:57:05.981Z,66.10
2019-06-07T05:00:10.986Z,66.00
2019-06-07T05:02:05.979Z,66.10
2019-06-07T05:04:37.110Z,66.20
2019-06-07T05:07:05.936Z,66.10
2019-06-07T05:09:37.655Z,66.10
2019-06-07T05:12:06.274Z,66.30
2019-06-07T05:14:36.744Z,66.90
2019-06-07T05:17:06.131Z,66.40
2019-06-07T05:19:38.564Z,66.40
2019-06-07T05:22:05.901Z,66.60
2019-06-07T05:24:35.595Z,66.70
2019-06-07T05:27:05.424Z,66.70
2019-06-07T05:29:36.792Z,66.40
2019-06-07T05:32:05.283Z,66.30
2019-06-07T05:34:36.271Z,66.20
2019-06-07T05:37:11.618Z,66.10
2019-06-07T05:39:38.409Z,66.10
2019-06-07T05:42:06.347Z,65.90
2019-06-07T05:44:36.634Z,65.80
2019-06-07T05:47:07.084Z,65.70
2019-06-07T05:49:39.535Z,65.70
2019-06-07T05:52:07.042Z,65.70
2019-06-07T05:54:36.479Z,65.50
2019-06-07T05:57:06.783Z,65.60
2019-06-07T05:59:38.250Z,65.40
2019-06-07T06:02:21.875Z,65.20
2019-06-07T06:04:39.318Z,65.40
2019-06-07T06:07:07.784Z,65.50
2019-06-07T06:09:38.107Z,65.10
2019-06-07T06:12:07.207Z,65.00
2019-06-07T06:14:39.545Z,64.90
2019-06-07T06:17:06.781Z,65.00
2019-06-07T06:19:36.834Z,64.90
2019-06-07T06:22:06.280Z,64.70
2019-06-07T06:24:37.104Z,64.60
2019-06-07T06:27:41.511Z,64.70
2019-06-07T06:29:38.680Z,64.60
2019-06-07T06:32:41.342Z,64.80
2019-06-07T06:34:41.387Z,64.80
2019-06-07T06:37:09.187Z,64.90
2019-06-07T06:39:39.462Z,64.80
2019-06-07T06:42:11.262Z,64.90
2019-06-07T06:44:41.890Z,64.90
2019-06-07T06:47:11.298Z,65.00
2019-06-07T06:49:41.651Z,65.00
2019-06-07T06:52:10.757Z,65.00
2019-06-07T06:54:46.097Z,65.00
2019-06-07T06:57:19.729Z,65.20
2019-06-07T06:59:43.759Z,65.40
2019-06-07T07:02:12.556Z,65.60
2019-06-07T07:04:42.316Z,65.60
2019-06-07T07:07:12.186Z,65.30
2019-06-07T07:09:43.648Z,65.00
2019-06-07T07:12:14.799Z,64.80
2019-06-07T07:14:45.570Z,64.60
2019-06-07T07:17:13.343Z,64.40
2019-06-07T07:19:46.571Z,64.20
2019-06-07T07:22:13.418Z,64.10
2019-06-07T07:24:44.385Z,64.10
2019-06-07T07:27:15.691Z,63.90
2019-06-07T07:30:35.650Z,63.80
2019-06-07T07:32:35.419Z,63.60
2019-06-07T07:35:05.280Z,63.40
2019-06-07T07:37:34.183Z,63.10
2019-06-07T07:40:54.875Z,62.80
2019-06-07T07:42:33.603Z,62.50
2019-06-07T07:45:03.063Z,62.40
2019-06-07T07:47:32.030Z,62.30
2019-06-07T07:50:00.859Z,62.10
2019-06-07T07:52:30.062Z,62.10
2019-06-07T07:54:59.301Z,62.00
2019-06-07T07:57:29.185Z,61.90
2019-06-07T08:00:25.567Z,61.80
2019-06-07T08:02:29.203Z,61.70
2019-06-07T08:05:23.328Z,61.60
2019-06-07T08:07:29.787Z,61.20
2019-06-07T08:10:03.392Z,61.40
2019-06-07T08:12:29.991Z,62.10
2019-06-07T08:15:03.269Z,61.20
2019-06-07T08:17:29.548Z,61.20
2019-06-07T08:20:02.535Z,61.10
2019-06-07T08:22:29.688Z,61.00
2019-06-07T08:25:02.350Z,61.00
2019-06-07T08:27:29.224Z,60.80
2019-06-07T08:30:15.908Z,60.70
2019-06-07T08:32:28.617Z,60.20
2019-06-07T08:35:05.246Z,60.40
2019-06-07T08:38:13.158Z,60.30
2019-06-07T08:40:01.607Z,60.00
2019-06-07T08:42:36.840Z,59.90
2019-06-07T08:45:05.323Z,59.90
2019-06-07T08:47:32.403Z,59.90
2019-06-07T08:50:07.437Z,59.90
2019-06-07T08:52:34.740Z,60.10
2019-06-07T08:55:05.309Z,60.00
2019-06-07T08:57:35.400Z,60.10
2019-06-07T09:00:29.317Z,60.00
2019-06-07T09:02:37.461Z,59.80
2019-06-07T09:05:12.210Z,59.70
2019-06-07T09:07:40.832Z,59.60
2019-06-07T09:10:14.210Z,59.60
2019-06-07T09:12:41.833Z,59.50
2019-06-07T09:15:21.630Z,59.40
2019-06-07T09:18:30.204Z,59.30
2019-06-07T09:20:35.182Z,59.30
2019-06-07T09:22:45.724Z,59.00
2019-06-07T09:25:20.904Z,58.90
2019-06-07T09:27:46.674Z,58.90
2019-06-07T09:30:20.370Z,58.60
2019-06-07T09:32:49.849Z,58.60
2019-06-07T09:35:18.808Z,58.40
2019-06-07T09:38:07.713Z,58.10
2019-06-07T09:40:27.570Z,58.10
2019-06-07T09:43:38.348Z,58.00
2019-06-07T09:45:23.478Z,57.90
2019-06-07T09:47:52.341Z,57.70
2019-06-07T09:50:21.311Z,57.80
2019-06-07T09:52:58.688Z,57.80
2019-06-07T09:55:24.879Z,57.70
2019-06-07T09:57:51.638Z,57.50
2019-06-07T10:00:40.116Z,57.40
2019-06-07T10:02:52.699Z,57.20
2019-06-07T10:05:21.798Z,57.20
2019-06-07T10:08:02.632Z,57.30
2019-06-07T10:12:52.425Z,57.00
2019-06-07T10:15:22.000Z,57.00
2019-06-07T10:17:51.022Z,56.90
2019-06-07T10:20:20.264Z,56.90
2019-06-07T10:22:49.506Z,57.00
2019-06-07T10:25:19.922Z,56.90
2019-06-07T10:27:49.467Z,56.80
2019-06-07T10:30:20.365Z,56.70
2019-06-07T10:32:52.177Z,56.60
2019-06-07T10:35:21.017Z,56.50
2019-06-07T10:37:50.140Z,56.50
2019-06-07T10:40:19.419Z,56.40
2019-06-07T10:42:48.498Z,56.40
2019-06-07T10:45:18.609Z,56.40
2019-06-07T10:47:47.958Z,56.90
2019-06-07T10:50:19.057Z,56.20
2019-06-07T10:52:47.985Z,56.00
2019-06-07T10:55:16.853Z,55.80
2019-06-07T10:57:46.260Z,55.70
2019-06-07T11:00:15.804Z,55.70
2019-06-07T11:02:44.578Z,55.60
2019-06-07T11:05:14.429Z,56.10
2019-06-07T11:07:43.492Z,55.30
2019-06-07T11:10:17.745Z,55.30
2019-06-07T11:12:43.527Z,55.10
2019-06-07T11:15:14.878Z,55.10
2019-06-07T11:17:43.973Z,55.00
2019-06-07T11:20:14.438Z,54.90
2019-06-07T11:22:43.820Z,54.90
2019-06-07T11:25:14.586Z,54.80
2019-06-07T11:27:43.693Z,54.70
2019-06-07T11:30:14.409Z,54.50
2019-06-07T11:32:43.422Z,54.20
2019-06-07T11:35:14.028Z,54.00
2019-06-07T11:37:44.047Z,54.10
2019-06-07T11:40:32.039Z,54.00
2019-06-07T11:42:44.091Z,54.00
2019-06-07T11:45:15.383Z,54.00
2019-06-07T11:47:44.406Z,54.10
2019-06-07T11:50:13.819Z,53.90
2019-06-07T11:52:46.180Z,53.70
2019-06-07T11:55:13.932Z,53.90
2019-06-07T11:57:43.991Z,53.80
2019-06-07T12:00:18.251Z,54.40
2019-06-07T12:02:47.083Z,53.90
2019-06-07T12:05:20.091Z,53.80
2019-06-07T12:07:47.922Z,53.80
2019-06-07T12:10:21.185Z,53.70
2019-06-07T12:12:48.110Z,53.70
2019-06-07T12:15:19.149Z,53.60
2019-06-07T12:17:48.771Z,53.70
2019-06-07T12:20:20.530Z,53.60
2019-06-07T12:22:51.086Z,53.60
2019-06-07T12:25:24.800Z,53.40
2019-06-07T12:27:50.934Z,53.50
2019-06-07T12:30:27.382Z,53.50
2019-06-07T12:32:51.155Z,53.40
2019-06-07T12:35:20.138Z,53.30
2019-06-07T12:37:48.972Z,53.30
2019-06-07T12:40:27.613Z,53.30
2019-06-07T12:42:48.956Z,53.10
2019-06-07T12:45:41.262Z,53.10
2019-06-07T12:47:48.670Z,53.00
2019-06-07T12:50:17.725Z,53.50
2019-06-07T12:52:47.024Z,52.90
2019-06-07T12:55:18.103Z,52.80
2019-06-07T12:57:47.041Z,52.80
2019-06-07T13:00:18.080Z,52.80
2019-06-07T13:02:47.698Z,52.70
2019-06-07T13:05:17.915Z,52.70
2019-06-07T13:07:47.234Z,52.00
2019-06-07T13:10:17.891Z,52.00
2019-06-07T13:12:47.506Z,52.00
2019-06-07T13:15:19.755Z,52.00
2019-06-07T13:17:47.816Z,51.90
2019-06-07T13:20:18.230Z,52.00
2019-06-07T13:22:47.201Z,52.00
2019-06-07T13:25:16.546Z,52.00
2019-06-07T13:27:45.320Z,52.00
2019-06-07T13:30:14.306Z,52.00
2019-06-07T13:32:43.423Z,52.10
2019-06-07T13:35:13.265Z,51.80
2019-06-07T13:37:42.878Z,51.80
2019-06-07T13:40:11.876Z,51.80
2019-06-07T13:42:40.778Z,51.90
2019-06-07T13:45:10.271Z,51.80
2019-06-07T13:47:39.170Z,51.80
2019-06-07T13:50:09.091Z,51.60
2019-06-07T13:52:39.812Z,51.60
2019-06-07T13:55:09.208Z,51.60
2019-06-07T13:57:38.523Z,51.60
2019-06-07T14:00:10.686Z,51.70
2019-06-07T14:02:39.176Z,51.50
2019-06-07T14:05:08.690Z,51.50
2019-06-07T14:07:38.034Z,51.60
2019-06-07T14:10:11.177Z,51.50
2019-06-07T14:12:38.529Z,51.40
2019-06-07T14:15:08.583Z,51.40
2019-06-07T14:17:37.370Z,51.40
2019-06-07T14:20:07.468Z,51.40
2019-06-07T14:22:36.781Z,51.30
2019-06-07T14:25:06.336Z,51.30
2019-06-07T14:27:35.330Z,51.40
2019-06-07T14:30:05.306Z,51.30
2019-06-07T14:32:34.214Z,51.30
2019-06-07T14:35:03.410Z,51.20
2019-06-07T14:37:33.067Z,51.30
2019-06-07T14:40:02.274Z,51.30
2019-06-07T14:42:31.348Z,51.30
2019-06-07T14:45:05.582Z,51.30
2019-06-07T14:47:31.990Z,51.30
2019-06-07T14:50:00.888Z,51.40
2019-06-07T14:52:30.696Z,51.20
2019-06-07T14:55:00.394Z,51.20
2019-06-07T14:57:31.081Z,51.20
2019-06-07T15:00:10.509Z,51.20
2019-06-07T15:02:35.916Z,51.20
2019-06-07T15:05:02.985Z,51.20
2019-06-07T15:07:32.975Z,51.20
2019-06-07T15:10:02.076Z,51.20
2019-06-07T15:12:31.372Z,51.20
2019-06-07T15:15:00.267Z,51.20
2019-06-07T15:17:31.224Z,51.20
2019-06-07T15:20:00.846Z,51.20
2019-06-07T15:22:31.969Z,51.30
2019-06-07T15:25:02.229Z,51.20
2019-06-07T15:27:33.192Z,51.10
2019-06-07T15:30:11.801Z,51.00
2019-06-07T15:32:40.848Z,51.00
2019-06-07T15:35:10.211Z,50.90
2019-06-07T15:37:39.540Z,50.90
2019-06-07T15:40:09.298Z,50.90
2019-06-07T15:42:51.288Z,50.80
2019-06-07T15:45:09.807Z,50.90
2019-06-07T15:47:40.477Z,50.80
2019-06-07T15:50:09.943Z,50.70
2019-06-07T15:52:41.215Z,50.80
2019-06-07T15:55:10.244Z,50.70
2019-06-07T15:57:39.909Z,50.60
2019-06-07T16:00:11.742Z,50.70
2019-06-07T16:02:41.842Z,50.80
2019-06-07T16:05:11.278Z,50.60
2019-06-07T16:07:40.711Z,50.70
2019-06-07T16:10:10.277Z,50.70
2019-06-07T16:12:39.165Z,50.80
2019-06-07T16:15:08.707Z,50.80
2019-06-07T16:17:39.124Z,50.90
2019-06-07T16:20:08.613Z,51.00
2019-06-07T16:22:37.818Z,51.10
2019-06-07T16:25:07.635Z,51.10
2019-06-07T16:27:36.977Z,51.10
2019-06-07T16:30:09.418Z,51.00
2019-06-07T16:32:39.334Z,51.00
2019-06-07T16:35:09.292Z,51.00
2019-06-07T16:37:38.387Z,51.00
2019-06-07T16:40:09.800Z,51.00
2019-06-07T16:42:38.729Z,51.00
2019-06-07T16:45:08.921Z,50.90
2019-06-07T16:47:40.567Z,51.00
2019-06-07T16:50:09.769Z,50.90
2019-06-07T16:52:39.203Z,51.00
2019-06-07T16:55:08.803Z,51.10
2019-06-07T16:57:38.691Z,51.20
2019-06-07T17:00:08.025Z,51.20
2019-06-07T17:02:37.992Z,51.20
2019-06-07T17:05:07.701Z,51.20
2019-06-07T17:07:38.158Z,51.30
2019-06-07T17:10:08.063Z,51.20
2019-06-07T17:12:38.326Z,51.30
2019-06-07T17:15:08.270Z,51.20
2019-06-07T17:17:37.073Z,51.20
2019-06-07T17:20:07.742Z,51.20
2019-06-07T17:22:36.767Z,51.40
2019-06-07T17:25:05.724Z,51.30
2019-06-07T17:27:34.603Z,51.20
2019-06-07T17:30:03.788Z,51.20
2019-06-07T17:32:47.684Z,51.20
2019-06-07T17:35:03.266Z,51.20
2019-06-07T17:37:32.206Z,51.30
2019-06-07T17:40:01.007Z,51.20
2019-06-07T17:42:30.078Z,51.20
2019-06-07T17:44:59.222Z,51.30
2019-06-07T17:47:28.180Z,51.30
2019-06-07T17:49:57.057Z,51.20
2019-06-07T17:52:25.879Z,51.10
2019-06-07T17:54:54.771Z,51.10
2019-06-07T17:57:23.811Z,51.30
2019-06-07T17:59:53.198Z,51.50
2019-06-07T18:02:22.153Z,51.60
2019-06-07T18:04:53.546Z,51.80
2019-06-07T18:07:24.389Z,51.90
2019-06-07T18:09:54.799Z,51.90
2019-06-07T18:12:23.787Z,52.10
2019-06-07T18:14:52.658Z,52.10
2019-06-07T18:17:34.106Z,52.20
2019-06-07T18:19:53.062Z,52.10
2019-06-07T18:22:21.939Z,52.00
2019-06-07T18:24:50.836Z,52.00
2019-06-07T18:27:19.614Z,51.90
2019-06-07T18:29:48.593Z,52.00
2019-06-07T18:32:17.736Z,52.10
2019-06-07T18:34:46.795Z,51.90
2019-06-07T18:37:15.930Z,51.90
2019-06-07T18:39:45.010Z,51.80
2019-06-07T18:42:14.195Z,51.90
2019-06-07T18:44:43.038Z,51.80
2019-06-07T18:47:11.829Z,52.00
2019-06-07T18:49:41.243Z,52.00
2019-06-07T18:52:16.887Z,52.10
2019-06-07T18:54:46.783Z,52.10
2019-06-07T18:57:15.811Z,52.10
2019-06-07T18:59:44.674Z,52.10
2019-06-07T19:02:13.553Z,52.20
2019-06-07T19:04:43.032Z,52.30
2019-06-07T19:07:11.984Z,52.40
2019-06-07T19:09:41.222Z,52.40
2019-06-07T19:12:10.074Z,52.50
2019-06-07T19:14:38.983Z,52.60
2019-06-07T19:17:07.969Z,52.60
2019-06-07T19:19:37.175Z,52.70
2019-06-07T19:22:06.293Z,52.80
2019-06-07T19:24:35.281Z,52.80
2019-06-07T19:27:04.455Z,53.00
2019-06-07T19:29:33.355Z,53.00
2019-06-07T19:32:02.146Z,53.00
2019-06-07T19:34:31.100Z,53.10
2019-06-07T19:36:59.946Z,53.40
2019-06-07T19:39:28.839Z,53.40
2019-06-07T19:41:58.077Z,53.30
2019-06-07T19:44:27.304Z,53.40
2019-06-07T19:46:56.410Z,53.60
2019-06-07T19:49:25.439Z,53.70
2019-06-07T19:51:54.981Z,53.70
2019-06-07T19:54:23.924Z,53.80
2019-06-07T19:56:53.377Z,53.90
2019-06-07T19:59:22.270Z,54.00
2019-06-07T20:01:51.452Z,54.10
2019-06-07T20:04:20.367Z,54.10
2019-06-07T20:06:50.001Z,54.20
2019-06-07T20:09:19.354Z,54.30
2019-06-07T20:11:48.290Z,54.40
2019-06-07T20:14:17.450Z,54.30
2019-06-07T20:16:46.522Z,54.40
2019-06-07T20:19:15.935Z,54.50
2019-06-07T20:21:45.491Z,54.50
2019-06-07T20:24:26.513Z,54.60
2019-06-07T20:26:45.901Z,55.20
2019-06-07T20:29:25.994Z,54.70
2019-06-07T20:31:45.743Z,54.80
2019-06-07T20:34:15.219Z,55.00
2019-06-07T20:37:03.916Z,55.00
2019-06-07T20:39:33.887Z,55.10
2019-06-07T20:42:22.154Z,55.10
2019-06-07T20:44:51.053Z,55.20
2019-06-07T20:47:20.200Z,55.30
2019-06-07T20:49:49.292Z,55.40
2019-06-07T20:52:18.498Z,55.60
2019-06-07T20:54:47.798Z,55.70
2019-06-07T20:57:16.922Z,55.80
2019-06-07T20:59:46.062Z,55.70
2019-06-07T21:02:15.327Z,56.00
2019-06-07T21:04:44.222Z,56.10
2019-06-07T21:07:13.031Z,56.30
2019-06-07T21:09:42.258Z,56.50
2019-06-07T21:12:11.259Z,56.90
2019-06-07T21:14:40.590Z,57.00
2019-06-07T21:17:10.357Z,57.40
2019-06-07T21:19:39.389Z,57.80
2019-06-07T21:22:08.823Z,58.00
2019-06-07T21:24:37.796Z,58.30
2019-06-07T21:27:07.407Z,58.50
2019-06-07T21:29:37.286Z,58.60
2019-06-07T21:32:07.871Z,58.90
2019-06-07T21:34:37.830Z,59.20
2019-06-07T21:37:07.955Z,59.60
2019-06-07T21:39:39.044Z,59.70
2019-06-07T21:42:10.250Z,59.50
2019-06-07T21:44:41.211Z,59.90
2019-06-07T21:47:10.927Z,59.90
2019-06-07T21:49:40.406Z,60.30
2019-06-07T21:52:11.322Z,60.50
2019-06-07T21:54:40.427Z,60.60
2019-06-07T21:57:09.616Z,60.70
2019-06-07T21:59:38.528Z,60.90
2019-06-07T22:02:07.971Z,61.00
2019-06-07T22:04:36.763Z,61.20
2019-06-07T22:07:07.788Z,61.40
2019-06-07T22:09:36.770Z,61.50
2019-06-07T22:12:06.056Z,61.70
2019-06-07T22:14:34.970Z,61.80
2019-06-07T22:17:04.526Z,61.90
2019-06-07T22:19:33.761Z,61.90
2019-06-07T22:22:03.451Z,62.00
2019-06-07T22:24:33.789Z,62.40
2019-06-07T22:27:02.950Z,62.10
2019-06-07T22:29:31.904Z,62.20
2019-06-07T22:32:00.717Z,62.30
2019-06-07T22:34:29.677Z,62.50
2019-06-07T22:36:58.445Z,62.60
2019-06-07T22:39:27.612Z,62.60
2019-06-07T22:41:56.671Z,62.70
2019-06-07T22:44:25.751Z,62.70
2019-06-07T22:46:55.192Z,62.70
2019-06-07T22:49:23.996Z,62.80
2019-06-07T22:52:05.533Z,63.00
2019-06-07T22:54:23.667Z,63.00
2019-06-07T22:57:10.085Z,63.20
2019-06-07T22:59:39.210Z,63.20
2019-06-07T23:02:08.470Z,63.30
2019-06-07T23:04:37.613Z,63.40
2019-06-07T23:07:06.480Z,63.30
2019-06-07T23:09:36.312Z,63.40
2019-06-07T23:12:09.136Z,63.50
2019-06-07T23:14:40.542Z,63.50
2019-06-07T23:17:11.616Z,63.70
2019-06-07T23:19:41.503Z,63.90
2019-06-07T23:22:11.937Z,63.90
2019-06-07T23:24:42.822Z,63.80
2019-06-07T23:27:14.448Z,63.80
2019-06-07T23:29:44.141Z,63.80
2019-06-07T23:32:17.029Z,64.00
2019-06-07T23:34:48.006Z,64.20
2019-06-07T23:37:21.285Z,64.10
2019-06-07T23:39:50.696Z,64.20
2019-06-07T23:42:20.141Z,64.30
2019-06-07T23:44:49.091Z,64.50
2019-06-07T23:47:20.127Z,64.50
2019-06-07T23:49:48.884Z,64.60
2019-06-07T23:52:19.755Z,64.70
2019-06-07T23:54:48.760Z,64.80
2019-06-07T23:57:19.203Z,64.70
2019-06-07T23:59:48.259Z,64.90
